Time;durP1;ratioP1;P1;durP2;ratioP2;P2;SDS_P1;SDS_P2;PMS_P1;PMS_P2;Temp;Humidity;BMP_temperature;BMP_pressure;BME280_temperature;BME280_humidity;BME280_pressure;Samples;Min_cycle;Max_cycle;Signal;HPM_P1;HPM_P2
2023/08/07 00:01:44;;;;;;;;;;;;;;;19.13;49.11;97236.25;4218232;28;5685;-70
2023/08/07 00:03:48;;;;;;;;;;;;;;;19.06;49.43;97240.94;4225475;28;5673;-70
2023/08/07 00:05:52;;;;;;;;;;;;;;;19.05;49.41;97244.69;4224231;28;5673;-70
2023/08/07 00:07:55;;;;;;;;;;;;;;;19.01;49.39;97231.97;4215489;28;5813;-69
2023/08/07 00:09:56;;;;;;;;;;;;;;;18.93;49.46;97233.16;4225026;28;5598;-70
2023/08/07 00:11:59;;;;;;;;;;;;;;;18.98;49.71;97235.94;4221574;28;5673;-69
2023/08/07 00:14:02;;;;;;;;;;;;;;;19.05;49.41;97225.09;4225232;28;5665;-69
2023/08/07 00:16:05;;;;;;;;;;;;;;;19.07;49.65;97214.97;4221076;28;5781;-70
2023/08/07 00:18:08;;;;;;;;;;;;;;;19.12;49.71;97218.53;4229135;28;5755;-69
2023/08/07 00:20:12;;;;;;;;;;;;;;;19.19;49.63;97215.75;4230292;28;5593;-70
2023/08/07 00:22:15;;;;;;;;;;;;;;;19.26;49.50;97203.03;4229792;28;5658;-69
2023/08/07 00:24:18;;;;;;;;;;;;;;;19.28;49.64;97208.97;4234191;28;5621;-69
2023/08/07 00:26:21;;;;;;;;;;;;;;;19.32;49.52;97206.59;4228367;28;5597;-68
2023/08/07 00:28:24;;;;;;;;;;;;;;;19.32;49.60;97218.16;4228435;28;5726;-69
2023/08/07 00:30:27;;;;;;;;;;;;;;;19.36;49.61;97223.84;4229364;28;5613;-69
2023/08/07 00:32:30;;;;;;;;;;;;;;;19.41;49.81;97223.94;4236127;28;5656;-70
2023/08/07 00:34:33;;;;;;;;;;;;;;;19.43;49.93;97219.97;4228277;28;5583;-70
2023/08/07 00:36:37;;;;;;;;;;;;;;;19.49;50.22;97218.22;4219769;28;5620;-70
2023/08/07 00:38:40;;;;;;;;;;;;;;;19.50;49.98;97222.53;4228612;28;5594;-70
2023/08/07 00:40:43;;;;;;;;;;;;;;;19.52;50.25;97222.28;4236655;28;5622;-70
2023/08/07 00:42:45;;;;;;;;;;;;;;;19.53;50.47;97222.03;4234803;28;5624;-70
2023/08/07 00:44:48;;;;;;;;;;;;;;;19.52;50.43;97225.78;4228114;28;5657;-70
2023/08/07 00:46:51;;;;;;;;;;;;;;;19.53;50.60;97219.34;4220509;28;5676;-70
2023/08/07 00:48:54;;;;;;;;;;;;;;;19.54;50.75;97215.63;4225017;28;5912;-71
2023/08/07 00:50:58;;;;;;;;;;;;;;;19.57;51.00;97220.53;4231273;28;5759;-71
2023/08/07 00:53:03;;;;;;;;;;;;;;;19.61;50.67;97227.06;4230190;28;5843;-71
2023/08/07 00:55:06;;;;;;;;;;;;;;;19.62;50.94;97207.22;4232670;28;5602;-71
2023/08/07 00:57:12;;;;;;;;;;;;;;;19.61;50.98;97204.78;4234526;28;5614;-70
2023/08/07 00:59:18;;;;;;;;;;;;;;;19.63;50.74;97213.41;4201833;28;5635;-71
2023/08/07 01:01:21;;;;;;;;;;;;;;;19.62;50.96;97217.97;4228174;28;5736;-71
2023/08/07 01:03:24;;;;;;;;;;;;;;;19.62;51.00;97217.97;4235383;28;5833;-70
2023/08/07 01:05:27;;;;;;;;;;;;;;;19.65;50.90;97222.81;4235837;28;6776;-70
2023/08/07 01:07:30;;;;;;;;;;;;;;;19.67;50.77;97223.41;4235128;28;5734;-71
2023/08/07 01:09:35;;;;;;;;;;;;;;;19.68;50.56;97224.22;4227688;28;5679;-70
2023/08/07 01:11:50;;;;;;;;;;;;;;;19.63;50.75;97227.63;4233819;28;5598;-70
2023/08/07 01:14:01;;;;;;;;;;;;;;;19.61;50.59;97232.41;4236299;28;5844;-70
2023/08/07 01:16:10;;;;;;;;;;;;;;;19.62;50.68;97235.91;4232192;28;5625;-71
2023/08/07 01:18:14;;;;;;;;;;;;;;;19.64;50.49;97237.28;4227808;28;5629;-70
2023/08/07 01:20:16;;;;;;;;;;;;;;;19.67;50.46;97228.75;4227755;28;5717;-69
2023/08/07 01:22:21;;;;;;;;;;;;;;;19.73;50.56;97235.06;4227690;28;5616;-70
2023/08/07 01:24:24;;;;;;;;;;;;;;;19.74;50.47;97232.13;4234682;28;5602;-70
2023/08/07 01:26:27;;;;;;;;;;;;;;;19.68;50.30;97235.75;4219728;28;5628;-69
2023/08/07 01:28:37;;;;;;;;;;;;;;;19.68;50.05;97233.06;4226267;28;5597;-69
2023/08/07 01:30:47;;;;;;;;;;;;;;;19.64;50.01;97234.63;4219330;28;5625;-70
2023/08/07 01:33:11;;;;;;;;;;;;;;;19.67;49.67;97244.03;4220533;28;5609;-69
2023/08/07 01:35:17;;;;;;;;;;;;;;;19.66;49.67;97251.28;4227082;28;5612;-69
2023/08/07 01:37:23;;;;;;;;;;;;;;;19.65;49.65;97238.94;4221230;28;5896;-70
2023/08/07 01:39:27;;;;;;;;;;;;;;;19.64;49.59;97247.22;4219200;28;7806;-69
2023/08/07 01:41:31;;;;;;;;;;;;;;;19.59;49.47;97247.09;4227121;28;6482;-69
2023/08/07 01:43:34;;;;;;;;;;;;;;;19.58;49.44;97245.47;4227083;28;5763;-69
2023/08/07 01:45:35;;;;;;;;;;;;;;;19.57;49.36;97247.34;4226886;28;5705;-69
2023/08/07 01:47:38;;;;;;;;;;;;;;;19.57;49.58;97247.34;4218805;28;5613;-70
2023/08/07 01:49:41;;;;;;;;;;;;;;;19.60;49.67;97241.53;4233990;28;6331;-70
2023/08/07 01:51:44;;;;;;;;;;;;;;;19.63;49.68;97245.59;4218981;28;6314;-70
2023/08/07 01:53:48;;;;;;;;;;;;;;;19.64;49.52;97239.97;4229170;28;5700;-70
2023/08/07 01:55:51;;;;;;;;;;;;;;;19.60;49.93;97233.47;4226517;28;5613;-68
2023/08/07 01:57:54;;;;;;;;;;;;;;;19.55;49.75;97227.16;4232543;28;5827;-70
2023/08/07 01:59:57;;;;;;;;;;;;;;;19.52;49.70;97223.09;4226864;28;5605;-70
2023/08/07 02:02:20;;;;;;;;;;;;;;;19.47;49.81;97217.63;4230952;28;5594;-70
2023/08/07 02:04:23;;;;;;;;;;;;;;;19.44;49.73;97226.97;4221519;28;5862;-70
2023/08/07 02:06:26;;;;;;;;;;;;;;;19.42;49.76;97229.06;4227180;28;5721;-70
2023/08/07 02:08:29;;;;;;;;;;;;;;;19.40;49.44;97233.06;4234389;28;5730;-70
2023/08/07 02:10:34;;;;;;;;;;;;;;;19.42;49.33;97233.63;4235057;28;5610;-70
2023/08/07 02:12:37;;;;;;;;;;;;;;;19.41;49.28;97230.13;4226827;28;5598;-70
2023/08/07 02:14:39;;;;;;;;;;;;;;;19.42;49.27;97239.78;4233265;28;5607;-70
2023/08/07 02:16:42;;;;;;;;;;;;;;;19.44;49.34;97243.03;4227719;28;5929;-70
2023/08/07 02:18:45;;;;;;;;;;;;;;;19.48;49.24;97243.41;4233684;28;5609;-70
2023/08/07 02:20:48;;;;;;;;;;;;;;;19.49;48.97;97242.34;4231417;28;5725;-70
2023/08/07 02:22:51;;;;;;;;;;;;;;;19.45;49.19;97246.53;4228141;28;5621;-70
2023/08/07 02:24:54;;;;;;;;;;;;;;;19.47;48.96;97253.28;4227035;28;6007;-70
2023/08/07 02:26:58;;;;;;;;;;;;;;;19.50;49.10;97252.03;4234808;28;5680;-70
2023/08/07 02:29:02;;;;;;;;;;;;;;;19.47;49.15;97247.13;4232325;28;5598;-70
2023/08/07 02:31:04;;;;;;;;;;;;;;;19.37;49.28;97236.22;4221697;28;5684;-70
2023/08/07 02:33:07;;;;;;;;;;;;;;;19.36;49.27;97243.41;4222736;28;5618;-70
2023/08/07 02:35:09;;;;;;;;;;;;;;;19.35;49.12;97243.66;4221514;28;5756;-70
2023/08/07 02:37:12;;;;;;;;;;;;;;;19.32;48.96;97247.63;4226521;28;5701;-70
2023/08/07 02:39:15;;;;;;;;;;;;;;;19.31;48.89;97253.22;4222350;28;5812;-70
2023/08/07 02:41:18;;;;;;;;;;;;;;;19.24;48.88;97244.50;4233902;28;5618;-70
2023/08/07 02:43:22;;;;;;;;;;;;;;;19.18;48.75;97239.06;4227520;28;5628;-70
2023/08/07 02:45:25;;;;;;;;;;;;;;;19.20;48.83;97247.66;4217209;28;5622;-70
2023/08/07 02:47:28;;;;;;;;;;;;;;;19.20;48.81;97254.91;4233859;28;7065;-70
2023/08/07 02:49:31;;;;;;;;;;;;;;;19.18;48.84;97257.00;4226178;28;5613;-69
2023/08/07 02:51:33;;;;;;;;;;;;;;;19.15;48.85;97260.97;4225070;28;6315;-68
2023/08/07 02:53:36;;;;;;;;;;;;;;;19.18;49.00;97265.84;4217614;28;5605;-69
2023/08/07 02:55:38;;;;;;;;;;;;;;;19.14;48.89;97267.38;4226098;28;5745;-69
2023/08/07 02:57:41;;;;;;;;;;;;;;;19.14;49.17;97272.75;4230498;28;5601;-69
2023/08/07 02:59:45;;;;;;;;;;;;;;;19.12;49.12;97268.66;4225679;28;5602;-69
2023/08/07 03:01:48;;;;;;;;;;;;;;;19.12;49.29;97261.41;4227783;28;5679;-69
2023/08/07 03:03:51;;;;;;;;;;;;;;;19.07;49.19;97264.00;4233182;28;5613;-69
2023/08/07 03:05:54;;;;;;;;;;;;;;;19.04;49.11;97263.69;4222911;28;5786;-69
2023/08/07 03:07:57;;;;;;;;;;;;;;;19.03;49.44;97262.03;4220600;28;5701;-69
2023/08/07 03:10:00;;;;;;;;;;;;;;;18.99;49.17;97261.69;4234176;28;5606;-69
2023/08/07 03:12:04;;;;;;;;;;;;;;;18.98;49.33;97253.88;4234167;28;5737;-69
2023/08/07 03:14:07;;;;;;;;;;;;;;;18.95;49.12;97251.69;4232587;28;5613;-69
2023/08/07 03:16:11;;;;;;;;;;;;;;;18.92;49.26;97244.94;4227756;28;5622;-69
2023/08/07 03:18:14;;;;;;;;;;;;;;;18.88;49.13;97251.78;4234279;28;5598;-70
2023/08/07 03:20:17;;;;;;;;;;;;;;;18.85;49.14;97252.28;4227598;28;5612;-70
2023/08/07 03:22:20;;;;;;;;;;;;;;;18.82;49.21;97250.88;4225807;28;5628;-70
2023/08/07 03:24:22;;;;;;;;;;;;;;;18.84;49.06;97253.31;4224704;28;5825;-70
2023/08/07 03:26:25;;;;;;;;;;;;;;;18.85;49.02;97252.28;4231232;28;5748;-70
2023/08/07 03:28:29;;;;;;;;;;;;;;;18.83;49.04;97252.50;4230956;28;5676;-70
2023/08/07 03:30:31;;;;;;;;;;;;;;;18.79;48.88;97245.16;4230788;28;5622;-70
2023/08/07 03:32:36;;;;;;;;;;;;;;;18.81;48.95;97240.41;4224246;28;5621;-70
2023/08/07 03:34:38;;;;;;;;;;;;;;;18.81;48.98;97237.72;4223037;28;5775;-70
2023/08/07 03:36:41;;;;;;;;;;;;;;;18.82;49.01;97239.34;4217467;28;6395;-70
2023/08/07 03:38:44;;;;;;;;;;;;;;;18.82;49.02;97237.50;4227377;28;5729;-70
2023/08/07 03:40:47;;;;;;;;;;;;;;;18.81;49.00;97232.38;4233803;28;5813;-70
2023/08/07 03:42:50;;;;;;;;;;;;;;;18.85;49.00;97244.22;4231497;28;5601;-69
2023/08/07 03:44:53;;;;;;;;;;;;;;;18.89;48.93;97240.03;4227526;28;5598;-70
2023/08/07 03:46:57;;;;;;;;;;;;;;;18.94;48.77;97253.53;4225174;28;5730;-70
2023/08/07 03:49:01;;;;;;;;;;;;;;;18.95;48.95;97249.00;4229362;28;5759;-70
2023/08/07 03:51:05;;;;;;;;;;;;;;;18.91;48.89;97248.63;4229431;28;5214;-70
2023/08/07 03:53:08;;;;;;;;;;;;;;;18.92;48.98;97247.63;4228069;28;5636;-71
2023/08/07 03:55:11;;;;;;;;;;;;;;;18.92;48.70;97249.47;4230614;28;5597;-70
2023/08/07 03:57:13;;;;;;;;;;;;;;;18.88;48.83;97252.59;4226476;28;5800;-68
2023/08/07 03:59:15;;;;;;;;;;;;;;;18.90;48.84;97258.53;4228159;28;5621;-69
2023/08/07 04:01:18;;;;;;;;;;;;;;;18.87;48.88;97258.19;4219917;28;5731;-70
2023/08/07 04:03:21;;;;;;;;;;;;;;;18.87;48.92;97260.88;4229479;28;5602;-69
2023/08/07 04:05:26;;;;;;;;;;;;;;;18.86;49.02;97256.56;4236388;28;5820;-69
2023/08/07 04:07:29;;;;;;;;;;;;;;;18.86;49.10;97262.75;4237248;28;5614;-70
2023/08/07 04:09:32;;;;;;;;;;;;;;;18.88;49.07;97259.81;4228439;28;5598;-70
2023/08/07 04:11:35;;;;;;;;;;;;;;;18.86;48.83;97259.25;4228272;28;5715;-69
2023/08/07 04:13:38;;;;;;;;;;;;;;;18.83;48.81;97252.50;4229130;28;5598;-70
2023/08/07 04:15:41;;;;;;;;;;;;;;;18.82;48.80;97250.88;4235629;28;5677;-70
2023/08/07 04:17:45;;;;;;;;;;;;;;;18.80;48.84;97252.13;4237005;28;5811;-70
2023/08/07 04:19:48;;;;;;;;;;;;;;;18.79;48.76;97245.16;4226821;28;5921;-70
2023/08/07 04:21:52;;;;;;;;;;;;;;;18.74;48.79;97248.53;4228165;28;8383;-70
2023/08/07 04:23:54;;;;;;;;;;;;;;;18.75;48.63;97244.00;4230631;28;5256;-70
2023/08/07 04:25:57;;;;;;;;;;;;;;;18.79;48.90;97245.97;4228616;28;5624;-70
2023/08/07 04:28:00;;;;;;;;;;;;;;;18.80;48.66;97247.63;4228186;27;5709;-69
2023/08/07 04:30:03;;;;;;;;;;;;;;;18.81;48.65;97243.09;4228540;28;5669;-68
2023/08/07 04:32:07;;;;;;;;;;;;;;;18.81;48.57;97251.13;4223961;28;5841;-69
2023/08/07 04:34:10;;;;;;;;;;;;;;;18.81;48.67;97251.13;4228438;28;5684;-70
2023/08/07 04:36:16;;;;;;;;;;;;;;;18.78;48.69;97264.97;4232659;28;5602;-70
2023/08/07 04:38:21;;;;;;;;;;;;;;;18.77;48.53;97257.97;4227262;28;5768;-70
2023/08/07 04:40:24;;;;;;;;;;;;;;;18.74;48.63;97258.44;4228127;28;5861;-70
2023/08/07 04:42:27;;;;;;;;;;;;;;;18.76;48.67;97251.00;4231414;28;5623;-70
2023/08/07 04:44:30;;;;;;;;;;;;;;;18.76;48.66;97256.34;4227412;28;5602;-70
2023/08/07 04:46:33;;;;;;;;;;;;;;;18.77;48.48;97252.63;4228105;28;5609;-70
2023/08/07 04:48:38;;;;;;;;;;;;;;;18.77;48.33;97257.97;4228821;28;5711;-67
2023/08/07 04:50:41;;;;;;;;;;;;;;;18.77;48.43;97257.97;4220618;28;5744;-69
2023/08/07 04:52:44;;;;;;;;;;;;;;;18.76;48.36;97251.00;4227986;28;7648;-69
2023/08/07 04:54:49;;;;;;;;;;;;;;;18.74;48.15;97253.09;4227214;28;5609;-69
2023/08/07 04:56:52;;;;;;;;;;;;;;;18.73;48.30;97251.47;4218373;28;5822;-70
2023/08/07 04:58:56;;;;;;;;;;;;;;;18.75;48.11;97260.88;4228190;28;6556;-70
2023/08/07 05:00:59;;;;;;;;;;;;;;;18.77;48.16;97250.75;4228614;28;5591;-70
2023/08/07 05:03:02;;;;;;;;;;;;;;;18.79;47.91;97251.31;4236466;28;5590;-70
2023/08/07 05:05:06;;;;;;;;;;;;;;;18.83;47.87;97254.38;4223539;28;5664;-70
2023/08/07 05:07:09;;;;;;;;;;;;;;;18.82;47.85;97250.88;4223449;28;5606;-69
2023/08/07 05:09:12;;;;;;;;;;;;;;;18.82;47.61;97261.59;4222430;28;5649;-70
2023/08/07 05:11:16;;;;;;;;;;;;;;;18.84;47.90;97253.31;4220671;28;5723;-67
2023/08/07 05:13:19;;;;;;;;;;;;;;;18.89;47.75;97256.09;4227370;28;5768;-66
2023/08/07 05:15:23;;;;;;;;;;;;;;;18.92;47.82;97255.66;4219197;28;5788;-66
2023/08/07 05:17:25;;;;;;;;;;;;;;;18.90;47.51;97249.69;4234731;28;5629;-64
2023/08/07 05:19:28;;;;;;;;;;;;;;;18.89;47.68;97256.09;4202109;28;5126;-64
2023/08/07 05:21:31;;;;;;;;;;;;;;;18.89;47.75;97250.75;4219156;28;5744;-64
2023/08/07 05:23:33;;;;;;;;;;;;;;;18.89;47.70;97256.91;4219052;28;5665;-64
2023/08/07 05:25:36;;;;;;;;;;;;;;;18.89;47.70;97267.63;4219163;28;5729;-64
2023/08/07 05:27:41;;;;;;;;;;;;;;;18.87;47.47;97271.59;4234454;28;5712;-65
2023/08/07 05:29:44;;;;;;;;;;;;;;;18.87;47.50;97268.91;4235171;28;6690;-65
2023/08/07 05:31:47;;;;;;;;;;;;;;;18.90;47.47;97268.44;4233952;28;5598;-64
2023/08/07 05:33:49;;;;;;;;;;;;;;;18.90;47.38;97271.13;4227053;28;5610;-64
2023/08/07 05:35:52;;;;;;;;;;;;;;;18.91;47.34;97264.72;4229743;28;5613;-65
2023/08/07 05:37:56;;;;;;;;;;;;;;;18.93;47.39;97270.66;4223765;28;5697;-64
2023/08/07 05:39:58;;;;;;;;;;;;;;;18.94;47.35;97277.66;4231949;28;5695;-65
2023/08/07 05:42:01;;;;;;;;;;;;;;;18.98;47.32;97273.44;4204126;28;5736;-65
2023/08/07 05:44:06;;;;;;;;;;;;;;;19.00;47.34;97267.84;4236013;28;5893;-65
2023/08/07 05:46:09;;;;;;;;;;;;;;;18.99;47.58;97277.75;4229282;27;5614;-66
2023/08/07 05:48:12;;;;;;;;;;;;;;;18.99;47.55;97272.41;4225816;27;6449;-66
2023/08/07 05:50:15;;;;;;;;;;;;;;;19.03;47.54;97278.13;4223501;27;5590;-64
2023/08/07 05:52:18;;;;;;;;;;;;;;;19.04;47.33;97277.06;4231108;27;5165;-64
2023/08/07 05:54:21;;;;;;;;;;;;;;;19.03;47.33;97278.94;4220733;28;5723;-64
2023/08/07 05:56:24;;;;;;;;;;;;;;;19.01;47.21;97281.00;4219915;27;5764;-64
2023/08/07 05:58:27;;;;;;;;;;;;;;;18.95;47.09;97284.66;4225524;27;5626;-64
2023/08/07 06:00:31;;;;;;;;;;;;;;;18.94;47.22;97280.34;4234741;27;5621;-65
2023/08/07 06:02:34;;;;;;;;;;;;;;;18.98;47.12;97283.34;4234909;27;5598;-65
2023/08/07 06:04:38;;;;;;;;;;;;;;;19.00;46.92;97289.28;4234952;28;5681;-65
2023/08/07 06:06:42;;;;;;;;;;;;;;;18.97;47.04;97290.56;4231763;27;5661;-65
2023/08/07 06:08:45;;;;;;;;;;;;;;;19.01;46.89;97286.38;4218349;27;5632;-66
2023/08/07 06:10:49;;;;;;;;;;;;;;;19.03;46.86;97297.69;4222396;27;5701;-65
2023/08/07 06:12:52;;;;;;;;;;;;;;;19.05;46.87;97298.28;4228317;27;5590;-65
2023/08/07 06:14:55;;;;;;;;;;;;;;;19.07;46.82;97301.53;4229910;27;7699;-65
2023/08/07 06:17:01;;;;;;;;;;;;;;;19.11;47.07;97305.34;4227573;27;5792;-65
2023/08/07 06:19:04;;;;;;;;;;;;;;;19.15;47.09;97306.53;4232988;27;5590;-65
2023/08/07 06:21:28;;;;;;;;;;;;;;;19.19;47.04;97302.31;4233584;27;5587;-65
2023/08/07 06:23:31;;;;;;;;;;;;;;;19.22;46.86;97305.56;4227016;28;5609;-65
2023/08/07 06:25:34;;;;;;;;;;;;;;;19.25;46.80;97310.47;4223527;27;6449;-65
2023/08/07 06:27:37;;;;;;;;;;;;;;;19.28;46.90;97307.31;4218076;28;5609;-66
2023/08/07 06:29:39;;;;;;;;;;;;;;;19.30;47.04;97305.22;4225962;28;5729;-65
2023/08/07 06:31:42;;;;;;;;;;;;;;;19.35;46.80;97302.63;4218007;28;5739;-65
2023/08/07 06:33:47;;;;;;;;;;;;;;;19.40;46.79;97310.81;4226536;28;5594;-65
2023/08/07 06:35:53;;;;;;;;;;;;;;;19.42;46.74;97304.16;4227000;27;5725;-65
2023/08/07 06:37:56;;;;;;;;;;;;;;;19.45;46.76;97310.88;4229129;28;5610;-65
2023/08/07 06:39:59;;;;;;;;;;;;;;;19.44;46.99;97311.94;4225176;27;5633;-65
2023/08/07 06:42:02;;;;;;;;;;;;;;;19.48;46.95;97305.06;4223860;27;5681;-66
2023/08/07 06:44:05;;;;;;;;;;;;;;;19.49;46.83;97312.88;4232812;28;5710;-65
2023/08/07 06:46:08;;;;;;;;;;;;;;;19.54;47.15;97311.34;4234563;28;5697;-65
2023/08/07 06:48:11;;;;;;;;;;;;;;;19.55;47.12;97319.19;4229683;28;5765;-66
2023/08/07 06:50:15;;;;;;;;;;;;;;;19.55;47.20;97312.97;4222887;28;5737;-66
2023/08/07 06:52:17;;;;;;;;;;;;;;;19.57;47.10;97321.63;4234724;28;6418;-66
2023/08/07 06:54:19;;;;;;;;;;;;;;;19.60;47.08;97321.16;4227482;28;5627;-66
2023/08/07 06:56:22;;;;;;;;;;;;;;;19.62;47.31;97324.41;4231643;28;5701;-65
2023/08/07 06:58:25;;;;;;;;;;;;;;;19.64;47.30;97325.81;4226053;28;5598;-65
2023/08/07 07:00:28;;;;;;;;;;;;;;;19.66;47.48;97326.38;4223634;28;5653;-65
2023/08/07 07:02:32;;;;;;;;;;;;;;;19.67;47.41;97330.69;4226110;28;5617;-64
2023/08/07 07:04:36;;;;;;;;;;;;;;;19.70;47.62;97338.25;4227872;28;5685;-66
2023/08/07 07:06:40;;;;;;;;;;;;;;;19.71;47.42;97339.91;4219131;28;5982;-65
2023/08/07 07:08:43;;;;;;;;;;;;;;;19.72;47.53;97338.84;4232794;28;7655;-65
2023/08/07 07:10:46;;;;;;;;;;;;;;;19.73;47.63;97337.78;4230627;28;5586;-70
2023/08/07 07:12:49;;;;;;;;;;;;;;;19.75;47.67;97345.59;4224012;28;5813;-71
2023/08/07 07:14:52;;;;;;;;;;;;;;;19.74;47.62;97339.41;4224537;28;6322;-70
2023/08/07 07:16:55;;;;;;;;;;;;;;;19.75;47.61;97335.69;4226066;28;5764;-71
2023/08/07 07:18:59;;;;;;;;;;;;;;;19.74;47.70;97336.75;4219823;28;5628;-70
2023/08/07 07:21:02;;;;;;;;;;;;;;;19.76;47.55;97337.31;4226098;28;5808;-71
2023/08/07 07:23:07;;;;;;;;;;;;;;;19.79;47.74;97346.75;4228416;28;5601;-70
2023/08/07 07:25:10;;;;;;;;;;;;;;;19.83;47.88;97341.75;4229244;28;5696;-71
2023/08/07 07:27:13;;;;;;;;;;;;;;;19.85;47.73;97339.63;4227184;28;5707;-71
2023/08/07 07:29:18;;;;;;;;;;;;;;;19.87;47.73;97353.63;4230106;28;5829;-71
2023/08/07 07:31:21;;;;;;;;;;;;;;;19.87;47.84;97356.28;4218080;28;5628;-71
2023/08/07 07:33:24;;;;;;;;;;;;;;;19.88;47.98;97352.56;4227501;28;5610;-71
2023/08/07 07:35:27;;;;;;;;;;;;;;;19.90;47.97;97347.75;4232242;28;5629;-71
2023/08/07 07:37:31;;;;;;;;;;;;;;;19.91;47.78;97344.03;4216507;28;7765;-71
2023/08/07 07:39:36;;;;;;;;;;;;;;;19.90;47.83;97345.06;4227335;28;5829;-70
2023/08/07 07:41:39;;;;;;;;;;;;;;;19.90;48.03;97343.22;4221397;28;5897;-70
2023/08/07 07:43:42;;;;;;;;;;;;;;;19.86;48.02;97338.56;4213463;28;5612;-71
2023/08/07 07:45:46;;;;;;;;;;;;;;;19.81;47.98;97327.72;4213357;28;5628;-71
2023/08/07 07:47:48;;;;;;;;;;;;;;;19.77;48.08;97332.75;4209532;28;5616;-71
2023/08/07 07:50:07;;;;;;;;;;;;;;;19.76;48.42;97331.94;4212961;28;6997;-72
2023/08/07 07:52:11;;;;;;;;;;;;;;;19.75;48.31;97324.13;4215381;28;5749;-71
2023/08/07 07:54:14;;;;;;;;;;;;;;;19.76;48.48;97329.25;4215874;28;5628;-71
2023/08/07 07:56:19;;;;;;;;;;;;;;;19.76;48.48;97337.31;4213775;28;5747;-70
2023/08/07 07:58:21;;;;;;;;;;;;;;;19.76;48.54;97339.19;4215498;28;5238;-70
2023/08/07 08:00:26;;;;;;;;;;;;;;;19.78;48.48;97339.75;4215662;28;5707;-71
2023/08/07 08:02:30;;;;;;;;;;;;;;;19.78;48.29;97347.78;4207324;28;5711;-71
2023/08/07 08:04:35;;;;;;;;;;;;;;;19.81;48.62;97347.31;4215071;28;5794;-71
2023/08/07 08:06:38;;;;;;;;;;;;;;;19.76;48.69;97347.22;4207600;28;5609;-71
2023/08/07 08:08:43;;;;;;;;;;;;;;;19.73;48.54;97353.06;4214848;28;5790;-71
2023/08/07 08:10:47;;;;;;;;;;;;;;;19.71;48.69;97356.00;4215763;28;5704;-71
2023/08/07 08:12:51;;;;;;;;;;;;;;;19.71;48.38;97352.50;4212934;28;5616;-71
2023/08/07 08:14:55;;;;;;;;;;;;;;;19.70;48.30;97351.66;4215594;28;6567;-71
2023/08/07 08:16:58;;;;;;;;;;;;;;;19.67;48.29;97346.78;4215495;28;5604;-71
2023/08/07 08:19:02;;;;;;;;;;;;;;;19.68;48.39;97351.09;4213236;28;5759;-70
2023/08/07 08:21:06;;;;;;;;;;;;;;;19.72;48.47;97352.25;4215341;28;5605;-71
2023/08/07 08:23:09;;;;;;;;;;;;;;;19.74;48.17;97355.53;4210948;28;5695;-71
2023/08/07 08:25:12;;;;;;;;;;;;;;;19.74;48.15;97358.19;4215400;28;5785;-71
2023/08/07 08:27:17;;;;;;;;;;;;;;;19.68;48.28;97353.78;4214992;28;5832;-71
2023/08/07 08:29:21;;;;;;;;;;;;;;;19.67;48.63;97349.47;4215297;28;6330;-71
2023/08/07 08:31:24;;;;;;;;;;;;;;;19.68;48.59;97356.44;4213230;28;5339;-71
2023/08/07 08:33:27;;;;;;;;;;;;;;;19.64;48.53;97349.94;4205690;28;5718;-71
2023/08/07 08:35:31;;;;;;;;;;;;;;;19.68;48.47;97350.28;4203811;28;5858;-72
2023/08/07 08:37:33;;;;;;;;;;;;;;;19.67;48.65;97345.97;4215474;28;5624;-72
2023/08/07 08:39:37;;;;;;;;;;;;;;;19.68;48.56;97345.72;4213108;28;5676;-71
2023/08/07 08:41:40;;;;;;;;;;;;;;;19.72;48.53;97346.09;4214867;28;5668;-72
2023/08/07 08:43:46;;;;;;;;;;;;;;;19.78;48.32;97345.94;4217100;28;5604;-73
2023/08/07 08:45:51;;;;;;;;;;;;;;;19.82;48.26;97346.28;4220288;28;6555;-72
2023/08/07 08:48:00;;;;;;;;;;;;;;;19.87;48.41;97348.25;4216398;28;5719;-72
2023/08/07 08:50:07;;;;;;;;;;;;;;;19.96;48.39;97352.19;4213574;28;5616;-70
2023/08/07 08:52:11;;;;;;;;;;;;;;;19.99;48.01;97349.84;4218159;28;5725;-71
2023/08/07 08:54:14;;;;;;;;;;;;;;;20.01;48.22;97349.59;4215595;28;5715;-72
2023/08/07 08:56:18;;;;;;;;;;;;;;;20.00;48.38;97342.59;4215329;28;5724;-72
2023/08/07 08:58:21;;;;;;;;;;;;;;;20.00;48.39;97347.97;4217996;28;5771;-71
2023/08/07 09:00:25;;;;;;;;;;;;;;;19.99;48.01;97340.97;4211456;28;5738;-71
2023/08/07 09:02:30;;;;;;;;;;;;;;;19.98;47.85;97339.34;4216734;28;5665;-71
2023/08/07 09:04:33;;;;;;;;;;;;;;;20.02;48.39;97337.78;4217645;28;5631;-71
2023/08/07 09:06:36;;;;;;;;;;;;;;;20.08;47.94;97334.16;4209791;28;5680;-71
2023/08/07 09:08:41;;;;;;;;;;;;;;;20.10;47.92;97336.59;4217809;28;5689;-71
2023/08/07 09:10:44;;;;;;;;;;;;;;;20.11;47.72;97344.41;4217662;28;5616;-71
2023/08/07 09:12:55;;;;;;;;;;;;;;;20.12;48.10;97340.66;4217667;28;5605;-71
2023/08/07 09:14:59;;;;;;;;;;;;;;;20.14;47.94;97343.91;4218080;28;5605;-71
2023/08/07 09:17:02;;;;;;;;;;;;;;;20.16;47.89;97344.53;4217968;28;5620;-71
2023/08/07 09:19:07;;;;;;;;;;;;;;;20.16;47.49;97341.84;4217934;28;5608;-71
2023/08/07 09:21:10;;;;;;;;;;;;;;;20.14;47.74;97343.91;4217745;28;5704;-71
2023/08/07 09:23:13;;;;;;;;;;;;;;;20.15;47.38;97350.09;4217317;28;5617;-71
2023/08/07 09:25:27;;;;;;;;;;;;;;;20.17;47.64;97356.88;4217648;28;5601;-71
2023/08/07 09:27:31;;;;;;;;;;;;;;;20.18;47.20;97355.81;4217129;28;5723;-71
2023/08/07 09:29:34;;;;;;;;;;;;;;;20.20;47.12;97358.28;4217501;28;7261;-71
2023/08/07 09:31:38;;;;;;;;;;;;;;;20.21;47.01;97354.53;4209544;28;5609;-71
2023/08/07 09:33:40;;;;;;;;;;;;;;;20.23;46.94;97358.59;4217393;28;5347;-71
2023/08/07 09:35:46;;;;;;;;;;;;;;;20.26;46.94;97362.66;4217749;28;5763;-71
2023/08/07 09:37:49;;;;;;;;;;;;;;;20.29;46.56;97364.88;4217830;28;5695;-71
2023/08/07 09:39:52;;;;;;;;;;;;;;;20.29;46.89;97365.69;4217282;28;5759;-71
2023/08/07 09:41:55;;;;;;;;;;;;;;;20.33;46.17;97366.84;4217310;28;5830;-71
2023/08/07 09:43:58;;;;;;;;;;;;;;;20.36;46.53;97371.72;4217494;28;5084;-71
2023/08/07 09:46:04;;;;;;;;;;;;;;;20.41;46.17;97370.19;4217135;28;5601;-71
2023/08/07 09:48:07;;;;;;;;;;;;;;;20.43;46.14;97365.41;4217384;28;5668;-71
2023/08/07 09:50:17;;;;;;;;;;;;;;;20.45;45.94;97368.69;4217133;28;5613;-71
2023/08/07 09:52:21;;;;;;;;;;;;;;;20.48;45.89;97368.19;4217563;28;5616;-71
2023/08/07 09:54:24;;;;;;;;;;;;;;;20.50;46.12;97368.75;4215236;28;5700;-70
2023/08/07 09:56:27;;;;;;;;;;;;;;;20.48;45.80;97360.94;4216712;28;5621;-71
2023/08/07 09:58:32;;;;;;;;;;;;;;;20.50;45.54;97368.75;4217095;28;5837;-71
2023/08/07 10:00:35;;;;;;;;;;;;;;;20.48;45.51;97365.50;4217528;28;5728;-71
2023/08/07 10:02:39;;;;;;;;;;;;;;;20.51;45.29;97367.72;4217279;28;5612;-71
2023/08/07 10:04:42;;;;;;;;;;;;;;;20.53;45.52;97362.91;4217083;28;5073;-71
2023/08/07 10:06:46;;;;;;;;;;;;;;;20.55;45.59;97366.16;4217325;28;5605;-71
2023/08/07 10:08:52;;;;;;;;;;;;;;;20.56;45.47;97375.84;4216985;28;5845;-71
2023/08/07 10:10:54;;;;;;;;;;;;;;;20.55;44.93;97366.97;4217184;28;5890;-72
2023/08/07 10:12:59;;;;;;;;;;;;;;;20.54;45.06;97359.16;4216966;28;5605;-71
2023/08/07 10:15:02;;;;;;;;;;;;;;;20.52;44.80;97361.28;4207601;28;5707;-72
2023/08/07 10:17:06;;;;;;;;;;;;;;;20.51;44.93;97363.16;4215405;28;5835;-71
2023/08/07 10:19:09;;;;;;;;;;;;;;;20.53;45.13;97366.41;4214645;28;5671;-71
2023/08/07 10:21:12;;;;;;;;;;;;;;;20.53;44.74;97360.22;4216730;28;6314;-71
2023/08/07 10:23:17;;;;;;;;;;;;;;;20.55;44.99;97366.16;4214442;28;5632;-71
2023/08/07 10:25:23;;;;;;;;;;;;;;;20.54;44.90;97368.03;4211834;28;5832;-71
2023/08/07 10:27:28;;;;;;;;;;;;;;;20.55;44.67;97366.16;4218125;28;5691;-70
2023/08/07 10:29:33;;;;;;;;;;;;;;;20.54;44.45;97367.22;4217071;28;5609;-71
2023/08/07 10:31:39;;;;;;;;;;;;;;;20.52;44.07;97364.78;4216092;28;5629;-71
2023/08/07 10:33:43;;;;;;;;;;;;;;;20.49;43.83;97359.06;4209416;28;7955;-71
2023/08/07 10:35:48;;;;;;;;;;;;;;;20.47;43.46;97356.63;4220418;28;5605;-71
2023/08/07 10:37:52;;;;;;;;;;;;;;;20.48;43.11;97355.56;4216373;28;5642;-71
2023/08/07 10:40:04;;;;;;;;;;;;;;;20.48;41.58;97344.81;4220289;28;5879;-71
2023/08/07 10:42:08;;;;;;;;;;;;;;;20.45;41.37;97350.69;4216654;28;5599;-70
2023/08/07 10:44:21;;;;;;;;;;;;;;;20.48;41.52;97349.38;4215034;28;7688;-71
2023/08/07 10:46:25;;;;;;;;;;;;;;;20.49;40.63;97346.44;4218293;28;5713;-71
2023/08/07 10:48:27;;;;;;;;;;;;;;;20.50;40.90;97339.22;4216793;28;5801;-70
2023/08/07 10:50:32;;;;;;;;;;;;;;;20.51;41.08;97338.19;4215143;28;5699;-70
2023/08/07 10:52:39;;;;;;;;;;;;;;;20.54;40.90;97343.06;4215051;28;6349;-71
2023/08/07 10:54:46;;;;;;;;;;;;;;;20.59;40.88;97348.50;4213458;28;5708;-70